createdAt,value
2015-10-21T00:00:09.089Z,73444
2015-10-21T00:00:21.432Z,73447
2015-10-21T00:00:33.760Z,73446
2015-10-21T00:00:46.092Z,73450
2015-10-21T00:00:58.435Z,73442
2015-10-21T00:01:10.763Z,73442
2015-10-21T00:01:23.092Z,73443
2015-10-21T00:01:35.420Z,73442
2015-10-21T00:01:47.766Z,73441
2015-10-21T00:02:00.110Z,73441
2015-10-21T00:02:12.438Z,73441
2015-10-21T00:02:24.751Z,73437
2015-10-21T00:02:37.095Z,73443
2015-10-21T00:02:49.456Z,73444
2015-10-21T00:03:01.784Z,73444
2015-10-21T00:03:14.112Z,73447
2015-10-21T00:03:26.440Z,73445
2015-10-21T00:03:38.628Z,73453
2015-10-21T00:03:51.006Z,73448
2015-10-21T00:04:03.334Z,73441
2015-10-21T00:04:15.662Z,73443
2015-10-21T00:04:27.990Z,73445
2015-10-21T00:04:40.334Z,73443
2015-10-21T00:04:52.665Z,73445
2015-10-21T00:05:04.993Z,73449
2015-10-21T00:05:17.353Z,73440
2015-10-21T00:05:29.696Z,73445
2015-10-21T00:05:42.040Z,73449
2015-10-21T00:05:54.370Z,73446
2015-10-21T00:06:06.698Z,73443
2015-10-21T00:06:19.026Z,73448
2015-10-21T00:06:31.370Z,73444
2015-10-21T00:06:43.698Z,73439
2015-10-21T00:06:56.015Z,73442
2015-10-21T00:07:08.343Z,73442
2015-10-21T00:07:20.687Z,73444
2015-10-21T00:07:33.030Z,73438
2015-10-21T00:07:45.374Z,73444
2015-10-21T00:07:57.704Z,73447
2015-10-21T00:08:10.032Z,73436
2015-10-21T00:08:22.376Z,73446
2015-10-21T00:08:34.704Z,73443
2015-10-21T00:08:47.032Z,73432
2015-10-21T00:08:59.379Z,73445
2015-10-21T00:09:11.723Z,73447
2015-10-21T00:09:24.051Z,73438
2015-10-21T00:09:36.379Z,73441
2015-10-21T00:09:48.707Z,73441
2015-10-21T00:10:01.038Z,73439
2015-10-21T00:10:13.382Z,73445
2015-10-21T00:10:26.023Z,73451
2015-10-21T00:10:38.335Z,73440
2015-10-21T00:10:50.663Z,73444
2015-10-21T00:11:03.009Z,73449
2015-10-21T00:11:15.353Z,73443
2015-10-21T00:11:27.681Z,73440
2015-10-21T00:11:40.009Z,73449
2015-10-21T00:11:52.340Z,73441
2015-10-21T00:12:04.684Z,73439
2015-10-21T00:12:17.012Z,73446
2015-10-21T00:12:29.340Z,73445
2015-10-21T00:12:41.684Z,73435
2015-10-21T00:12:54.015Z,73443
2015-10-21T00:13:06.359Z,73447
2015-10-21T00:13:18.687Z,73434
2015-10-21T00:13:31.015Z,73441
2015-10-21T00:13:43.328Z,73441
2015-10-21T00:13:55.690Z,73438
2015-10-21T00:14:08.034Z,73445
2015-10-21T00:14:20.362Z,73443
2015-10-21T00:14:32.706Z,73437
2015-10-21T00:14:45.034Z,73442
2015-10-21T00:14:57.395Z,73441
2015-10-21T00:15:09.723Z,73438
2015-10-21T00:15:22.051Z,73435
2015-10-21T00:15:34.380Z,73430
2015-10-21T00:15:46.739Z,73444
2015-10-21T00:15:58.367Z,73439
2015-10-21T00:16:10.695Z,73435
2015-10-21T00:16:23.023Z,73440
2015-10-21T00:16:35.351Z,73441
2015-10-21T00:16:47.695Z,73437
2015-10-21T00:17:00.025Z,73440
2015-10-21T00:17:12.353Z,73441
2015-10-21T00:17:24.681Z,73435
2015-10-21T00:17:37.025Z,73440
2015-10-21T00:17:49.385Z,73443
2015-10-21T00:18:01.701Z,73443
2015-10-21T00:18:13.310Z,73441
2015-10-21T00:18:25.639Z,73440
2015-10-21T00:18:38.014Z,73445
2015-10-21T00:18:50.357Z,73442
2015-10-21T00:19:02.672Z,73439
2015-10-21T00:19:15.000Z,73447
2015-10-21T00:19:27.328Z,73442
2015-10-21T00:19:39.687Z,73441
2015-10-21T00:19:52.016Z,73444
2015-10-21T00:20:04.331Z,73446
2015-10-21T00:20:16.659Z,73445
2015-10-21T00:20:29.003Z,73448
2015-10-21T00:20:41.362Z,73447
2015-10-21T00:20:53.956Z,73451
2015-10-21T00:21:06.286Z,73439
2015-10-21T00:21:18.614Z,73444
2015-10-21T00:21:30.974Z,73442
2015-10-21T00:21:43.302Z,73442
2015-10-21T00:21:55.630Z,73449
2015-10-21T00:22:07.961Z,73447
2015-10-21T00:22:20.305Z,73441
2015-10-21T00:22:32.664Z,73442
2015-10-21T00:22:44.977Z,73446
2015-10-21T00:22:57.320Z,73445
2015-10-21T00:23:09.636Z,73440
2015-10-21T00:23:21.995Z,73446
2015-10-21T00:23:34.323Z,73448
2015-10-21T00:23:46.667Z,73445
2015-10-21T00:23:58.995Z,73448
2015-10-21T00:24:11.342Z,73447
2015-10-21T00:24:23.686Z,73443
2015-10-21T00:24:36.014Z,73445
2015-10-21T00:24:48.342Z,73445
2015-10-21T00:25:00.688Z,73441
2015-10-21T00:25:13.047Z,73447
2015-10-21T00:25:25.375Z,73442
2015-10-21T00:25:37.719Z,73444
2015-10-21T00:25:50.047Z,73438
2015-10-21T00:26:02.378Z,73446
2015-10-21T00:26:14.722Z,73446
2015-10-21T00:26:27.050Z,73442
2015-10-21T00:26:39.378Z,73446
2015-10-21T00:26:51.722Z,73442
2015-10-21T00:27:04.053Z,73448
2015-10-21T00:27:16.397Z,73446
2015-10-21T00:27:28.725Z,73439
2015-10-21T00:27:41.069Z,73449
2015-10-21T00:27:53.413Z,73451
2015-10-21T00:28:05.743Z,73442
2015-10-21T00:28:18.071Z,73451
2015-10-21T00:28:30.399Z,73450
2015-10-21T00:28:42.727Z,73452
2015-10-21T00:28:55.071Z,73450
2015-10-21T00:29:07.418Z,73451
2015-10-21T00:29:19.730Z,73446
2015-10-21T00:29:32.058Z,73452
2015-10-21T00:29:44.386Z,73447
2015-10-21T00:29:56.746Z,73448
2015-10-21T00:30:09.077Z,73450
2015-10-21T00:30:21.405Z,73445
2015-10-21T00:30:33.733Z,73455
2015-10-21T00:30:46.077Z,73450
2015-10-21T00:30:58.405Z,73453
2015-10-21T00:31:10.736Z,73447
2015-10-21T00:31:23.064Z,73442
2015-10-21T00:31:35.392Z,73446
2015-10-21T00:31:47.736Z,73447
2015-10-21T00:32:00.080Z,73441
2015-10-21T00:32:12.707Z,73446
2015-10-21T00:32:25.019Z,73446
2015-10-21T00:32:37.363Z,73442
2015-10-21T00:32:49.691Z,73444
2015-10-21T00:33:01.301Z,73451
2015-10-21T00:33:13.632Z,73449
2015-10-21T00:33:25.960Z,73453
2015-10-21T00:33:38.147Z,73449
2015-10-21T00:33:50.491Z,73443
2015-10-21T00:34:02.819Z,73442
2015-10-21T00:34:15.150Z,73446
2015-10-21T00:34:27.478Z,73448
2015-10-21T00:34:39.838Z,73449
2015-10-21T00:34:52.166Z,73450
2015-10-21T00:35:04.494Z,73444
2015-10-21T00:35:16.841Z,73445
2015-10-21T00:35:29.185Z,73446
2015-10-21T00:35:41.513Z,73448
2015-10-21T00:35:53.856Z,73450
2015-10-21T00:36:06.169Z,73458
2015-10-21T00:36:18.516Z,73453
2015-10-21T00:36:30.859Z,73447
2015-10-21T00:36:43.188Z,73458
2015-10-21T00:36:55.516Z,73457
2015-10-21T00:37:07.844Z,73451
2015-10-21T00:37:20.190Z,73453
2015-10-21T00:37:32.533Z,73452
2015-10-21T00:37:44.861Z,73453
2015-10-21T00:37:57.190Z,73451
2015-10-21T00:38:09.518Z,73457
2015-10-21T00:38:21.880Z,73454
2015-10-21T00:38:34.208Z,73450
2015-10-21T00:38:46.552Z,73451
2015-10-21T00:38:58.880Z,73456
2015-10-21T00:39:11.210Z,73451
2015-10-21T00:39:23.570Z,73449
2015-10-21T00:39:35.898Z,73447
2015-10-21T00:39:48.226Z,73454
2015-10-21T00:40:00.554Z,73450
2015-10-21T00:40:12.901Z,73458
2015-10-21T00:40:25.244Z,73452
2015-10-21T00:40:37.573Z,73453
2015-10-21T00:40:49.901Z,73456
2015-10-21T00:41:02.244Z,73454
2015-10-21T00:41:14.591Z,73458
2015-10-21T00:41:26.935Z,73459
2015-10-21T00:41:39.263Z,73461
2015-10-21T00:41:51.591Z,73454
2015-10-21T00:42:03.919Z,73452
2015-10-21T00:42:16.110Z,73454
2015-10-21T00:42:28.438Z,73457
2015-10-21T00:42:40.766Z,73457
2015-10-21T00:42:53.094Z,73454
2015-10-21T00:43:05.454Z,73454
2015-10-21T00:43:17.784Z,73460
2015-10-21T00:43:30.112Z,73457
2015-10-21T00:43:42.440Z,73454
2015-10-21T00:43:54.784Z,73453
2015-10-21T00:44:07.127Z,73453
2015-10-21T00:44:19.459Z,73452
2015-10-21T00:44:31.787Z,73459
2015-10-21T00:44:44.115Z,73453
2015-10-21T00:44:56.459Z,73461
2015-10-21T00:45:08.802Z,73461
2015-10-21T00:45:21.117Z,73459
2015-10-21T00:45:33.445Z,73463
2015-10-21T00:45:45.773Z,73460
2015-10-21T00:45:58.132Z,73458
2015-10-21T00:46:10.476Z,73461
2015-10-21T00:46:22.807Z,73453
2015-10-21T00:46:35.151Z,73463
2015-10-21T00:46:47.495Z,73459
2015-10-21T00:46:59.823Z,73455
2015-10-21T00:47:11.448Z,73458
2015-10-21T00:47:23.795Z,73454
2015-10-21T00:47:36.123Z,73455
2015-10-21T00:47:48.467Z,73462
2015-10-21T00:48:00.810Z,73463
2015-10-21T00:48:12.420Z,73465
2015-10-21T00:48:24.766Z,73461
2015-10-21T00:48:37.095Z,73464
2015-10-21T00:48:48.735Z,73464
2015-10-21T00:49:01.063Z,73461
2015-10-21T00:49:13.391Z,73462
2015-10-21T00:49:25.004Z,73457
2015-10-21T00:49:37.363Z,73462
2015-10-21T00:49:49.691Z,73455
2015-10-21T00:50:02.004Z,73455
2015-10-21T00:50:14.332Z,73466
2015-10-21T00:50:26.678Z,73463
2015-10-21T00:50:39.021Z,73460
2015-10-21T00:50:51.350Z,73464
2015-10-21T00:51:03.693Z,73461
2015-10-21T00:51:16.021Z,73461
2015-10-21T00:51:28.368Z,73465
2015-10-21T00:51:40.712Z,73462
2015-10-21T00:51:53.056Z,73462
2015-10-21T00:52:05.368Z,73467
2015-10-21T00:52:17.696Z,73460
2015-10-21T00:52:30.058Z,73463
2015-10-21T00:52:42.386Z,73465
2015-10-21T00:52:54.573Z,73465
2015-10-21T00:53:06.886Z,73462
2015-10-21T00:53:19.230Z,73465
2015-10-21T00:53:31.577Z,73465
2015-10-21T00:53:43.905Z,73467
2015-10-21T00:53:56.234Z,73465
2015-10-21T00:54:08.562Z,73463
2015-10-21T00:54:20.905Z,73469
2015-10-21T00:54:32.532Z,73466
2015-10-21T00:54:44.861Z,73469
2015-10-21T00:54:57.189Z,73471
2015-10-21T00:55:09.532Z,73459
2015-10-21T00:55:21.861Z,73463
2015-10-21T00:55:34.207Z,73465
2015-10-21T00:55:46.520Z,73461
2015-10-21T00:55:58.864Z,73465
2015-10-21T00:56:11.192Z,73463
2015-10-21T00:56:23.554Z,73467
2015-10-21T00:56:35.882Z,73463
2015-10-21T00:56:48.054Z,73466
2015-10-21T00:57:00.382Z,73460
2015-10-21T00:57:12.742Z,73466
2015-10-21T00:57:25.072Z,73461
2015-10-21T00:57:37.415Z,73457
2015-10-21T00:57:49.744Z,73459
2015-10-21T00:58:02.072Z,73470
2015-10-21T00:58:14.415Z,73465
2015-10-21T00:58:26.762Z,73466
2015-10-21T00:58:39.090Z,73463
2015-10-21T00:58:51.403Z,73465
2015-10-21T00:59:03.762Z,73464
2015-10-21T00:59:16.090Z,73467
2015-10-21T00:59:28.421Z,73464
2015-10-21T00:59:40.734Z,73472
2015-10-21T00:59:53.078Z,73466
2015-10-21T01:00:05.421Z,73463
2015-10-21T01:00:17.734Z,73464
2015-10-21T01:00:30.081Z,73460
2015-10-21T01:00:42.409Z,73456
2015-10-21T01:00:54.753Z,73454
2015-10-21T01:01:07.081Z,73467
2015-10-21T01:01:19.409Z,73461
2015-10-21T01:01:31.740Z,73463
2015-10-21T01:01:44.068Z,73462
2015-10-21T01:01:56.427Z,73465
2015-10-21T01:02:08.756Z,73464
2015-10-21T01:02:20.381Z,73467
2015-10-21T01:02:32.695Z,73461
2015-10-21T01:02:45.039Z,73472
2015-10-21T01:02:57.383Z,73460
2015-10-21T01:03:09.711Z,73465
2015-10-21T01:03:22.039Z,73462
2015-10-21T01:03:34.370Z,73461
2015-10-21T01:03:46.714Z,73463
2015-10-21T01:03:59.073Z,73463
2015-10-21T01:04:11.401Z,73465
2015-10-21T01:04:23.729Z,73464
2015-10-21T01:04:36.092Z,73461
2015-10-21T01:04:48.451Z,73459
2015-10-21T01:05:00.764Z,73458
2015-10-21T01:05:13.092Z,73457
2015-10-21T01:05:25.420Z,73465
2015-10-21T01:05:37.766Z,73464
2015-10-21T01:05:50.109Z,73457
2015-10-21T01:06:02.437Z,73464
2015-10-21T01:06:14.750Z,73453
2015-10-21T01:06:27.094Z,73463
2015-10-21T01:06:39.456Z,73459
2015-10-21T01:06:51.784Z,73457
2015-10-21T01:07:04.112Z,73461
2015-10-21T01:07:16.440Z,73464
2015-10-21T01:07:28.800Z,73464
2015-10-21T01:07:41.131Z,73466
2015-10-21T01:07:53.459Z,73458
2015-10-21T01:08:05.068Z,73456
2015-10-21T01:08:17.412Z,73458
2015-10-21T01:08:29.756Z,73458
2015-10-21T01:08:42.102Z,73456
2015-10-21T01:08:54.430Z,73460
2015-10-21T01:09:06.758Z,73461
2015-10-21T01:09:19.102Z,73455
2015-10-21T01:09:31.430Z,73459
2015-10-21T01:09:43.761Z,73459
2015-10-21T01:09:56.073Z,73462
2015-10-21T01:10:08.402Z,73467
2015-10-21T01:10:20.730Z,73458
2015-10-21T01:10:33.058Z,73463
2015-10-21T01:10:45.389Z,73458
2015-10-21T01:10:57.717Z,73465
2015-10-21T01:11:10.061Z,73463
2015-10-21T01:11:22.389Z,73456
2015-10-21T01:11:34.720Z,73457
2015-10-21T01:11:47.048Z,73457
2015-10-21T01:11:59.392Z,73455
2015-10-21T01:12:11.736Z,73459
2015-10-21T01:12:24.064Z,73461
2015-10-21T01:12:36.394Z,73457
2015-10-21T01:12:48.722Z,73458
2015-10-21T01:13:01.050Z,73458
2015-10-21T01:13:13.410Z,73457
2015-10-21T01:13:25.722Z,73459
2015-10-21T01:13:38.053Z,73463
2015-10-21T01:13:50.381Z,73457
2015-10-21T01:14:02.725Z,73459
2015-10-21T01:14:15.069Z,73463
2015-10-21T01:14:27.397Z,73455
2015-10-21T01:14:39.728Z,73456
2015-10-21T01:14:52.056Z,73463
2015-10-21T01:15:04.416Z,73455
2015-10-21T01:15:16.744Z,73455
2015-10-21T01:15:29.072Z,73458
2015-10-21T01:15:41.403Z,73462
2015-10-21T01:15:53.747Z,73469
2015-10-21T01:16:06.075Z,73460
2015-10-21T01:16:18.403Z,73459
2015-10-21T01:16:30.731Z,73459
2015-10-21T01:16:43.077Z,73460
2015-10-21T01:16:54.717Z,73454
2015-10-21T01:17:07.061Z,73452
2015-10-21T01:17:18.671Z,73463
2015-10-21T01:17:30.999Z,73454
2015-10-21T01:17:43.345Z,73461
2015-10-21T01:17:54.970Z,73459
2015-10-21T01:18:07.299Z,73450
2015-10-21T01:18:19.611Z,73452
2015-10-21T01:18:31.236Z,73460
2015-10-21T01:18:43.583Z,73455
2015-10-21T01:18:55.911Z,73452
2015-10-21T01:19:08.239Z,73454
2015-10-21T01:19:20.567Z,73447
2015-10-21T01:19:32.911Z,73453
2015-10-21T01:19:45.257Z,73458
2015-10-21T01:19:57.585Z,73457
2015-10-21T01:20:09.913Z,73456
2015-10-21T01:20:22.241Z,73463
2015-10-21T01:20:34.585Z,73459
2015-10-21T01:20:46.916Z,73457
2015-10-21T01:20:59.088Z,73463
2015-10-21T01:21:11.416Z,73460
2015-10-21T01:21:23.744Z,73455
2015-10-21T01:21:36.103Z,73457
2015-10-21T01:21:48.435Z,73465
2015-10-21T01:22:00.763Z,73457
2015-10-21T01:22:12.388Z,73464
2015-10-21T01:22:24.731Z,73462
2015-10-21T01:22:37.075Z,73459
2015-10-21T01:22:49.406Z,73460
2015-10-21T01:23:01.734Z,73463
2015-10-21T01:23:14.063Z,73462
2015-10-21T01:23:26.422Z,73462
2015-10-21T01:23:38.750Z,73459
2015-10-21T01:23:51.080Z,73461
2015-10-21T01:24:03.408Z,73457
2015-10-21T01:24:15.752Z,73458
2015-10-21T01:24:28.096Z,73461
2015-10-21T01:24:40.424Z,73458
2015-10-21T01:24:52.771Z,73461
2015-10-21T01:25:05.114Z,73457
2015-10-21T01:25:17.458Z,73462
2015-10-21T01:25:29.802Z,73458
2015-10-21T01:25:42.130Z,73458
2015-10-21T01:25:54.477Z,73456
2015-10-21T01:26:06.821Z,73467
2015-10-21T01:26:19.149Z,73456
2015-10-21T01:26:31.492Z,73457
2015-10-21T01:26:43.821Z,73457
2015-10-21T01:26:56.136Z,73459
2015-10-21T01:27:08.495Z,73453
2015-10-21T01:27:20.824Z,73454
2015-10-21T01:27:33.152Z,73454
2015-10-21T01:27:45.495Z,73450
2015-10-21T01:27:57.827Z,73462
2015-10-21T01:28:10.170Z,73456
2015-10-21T01:28:22.498Z,73453
2015-10-21T01:28:34.827Z,73456
2015-10-21T01:28:47.139Z,73451
2015-10-21T01:28:59.485Z,73459
2015-10-21T01:29:11.829Z,73452
2015-10-21T01:29:24.157Z,73457
2015-10-21T01:29:36.485Z,73459
2015-10-21T01:29:48.831Z,73453
2015-10-21T01:30:01.174Z,73454
2015-10-21T01:30:13.502Z,73456
2015-10-21T01:30:25.831Z,73449
2015-10-21T01:30:38.159Z,73452
2015-10-21T01:30:50.505Z,73452
2015-10-21T01:31:02.849Z,73454
2015-10-21T01:31:15.177Z,73449
2015-10-21T01:31:27.521Z,73458
2015-10-21T01:31:39.849Z,73458
2015-10-21T01:31:52.040Z,73450
2015-10-21T01:32:04.383Z,73458
2015-10-21T01:32:16.712Z,73458
2015-10-21T01:32:29.040Z,73453
2015-10-21T01:32:41.368Z,73457
2015-10-21T01:32:53.714Z,73452
2015-10-21T01:33:06.057Z,73459
2015-10-21T01:33:18.385Z,73459
2015-10-21T01:33:30.714Z,73452
2015-10-21T01:33:43.057Z,73458
2015-10-21T01:33:55.389Z,73456
2015-10-21T01:34:07.733Z,73455
2015-10-21T01:34:20.061Z,73457
2015-10-21T01:34:32.389Z,73458
2015-10-21T01:34:44.030Z,73448
2015-10-21T01:34:56.376Z,73460
2015-10-21T01:35:08.704Z,73455
2015-10-21T01:35:21.032Z,73451
2015-10-21T01:35:33.360Z,73455
2015-10-21T01:35:45.720Z,73453
2015-10-21T01:35:58.051Z,73454
2015-10-21T01:36:10.394Z,73454
2015-10-21T01:36:22.707Z,73450
2015-10-21T01:36:35.066Z,73451
2015-10-21T01:36:46.691Z,73449
2015-10-21T01:36:59.022Z,73451
2015-10-21T01:37:11.351Z,73454
2015-10-21T01:37:23.679Z,73458
2015-10-21T01:37:36.054Z,73453
2015-10-21T01:37:48.382Z,73448
2015-10-21T01:38:00.713Z,73447
2015-10-21T01:38:13.041Z,73447
2015-10-21T01:38:25.385Z,73451
2015-10-21T01:38:37.744Z,73449
2015-10-21T01:38:50.244Z,73448
2015-10-21T01:39:01.871Z,73451
2015-10-21T01:39:14.199Z,73446
2015-10-21T01:39:26.543Z,73448
2015-10-21T01:39:38.887Z,73444
2015-10-21T01:39:51.215Z,73448
2015-10-21T01:40:03.546Z,73452
2015-10-21T01:40:15.874Z,73451
2015-10-21T01:40:28.234Z,73454
2015-10-21T01:40:40.562Z,73448
2015-10-21T01:40:52.890Z,73447
2015-10-21T01:41:05.221Z,73449
2015-10-21T01:41:17.549Z,73452
2015-10-21T01:41:29.190Z,73443
2015-10-21T01:41:41.518Z,73455
2015-10-21T01:41:53.846Z,73445
2015-10-21T01:42:06.176Z,73445
2015-10-21T01:42:18.520Z,73446
2015-10-21T01:42:30.848Z,73448
2015-10-21T01:42:43.192Z,73447
2015-10-21T01:42:55.520Z,73450
2015-10-21T01:43:07.867Z,73449
2015-10-21T01:43:20.226Z,73443
2015-10-21T01:43:32.538Z,73445
2015-10-21T01:43:44.867Z,73448
2015-10-21T01:43:57.213Z,73442
2015-10-21T01:44:09.557Z,73447
2015-10-21T01:44:22.151Z,73449
2015-10-21T01:44:34.479Z,73451
2015-10-21T01:44:46.807Z,73451
2015-10-21T01:44:59.153Z,73447
2015-10-21T01:45:11.512Z,73444
2015-10-21T01:45:23.840Z,73449
2015-10-21T01:45:36.184Z,73448
2015-10-21T01:45:48.512Z,73447
2015-10-21T01:46:00.859Z,73447
2015-10-21T01:46:13.187Z,73447
2015-10-21T01:46:25.515Z,73446
2015-10-21T01:46:37.843Z,73455
2015-10-21T01:46:50.171Z,73446
2015-10-21T01:47:02.518Z,73446
2015-10-21T01:47:14.831Z,73449
2015-10-21T01:47:27.159Z,73451
2015-10-21T01:47:39.471Z,73452
2015-10-21T01:47:51.815Z,73444
2015-10-21T01:48:04.146Z,73454
2015-10-21T01:48:16.474Z,73450
2015-10-21T01:48:28.818Z,73450
2015-10-21T01:48:41.146Z,73454
2015-10-21T01:48:53.490Z,73451
2015-10-21T01:49:05.836Z,73451
2015-10-21T01:49:18.179Z,73447
2015-10-21T01:49:30.523Z,73449
2015-10-21T01:49:42.851Z,73447
2015-10-21T01:49:55.226Z,73450
2015-10-21T01:50:07.556Z,73450
2015-10-21T01:50:19.963Z,73445
2015-10-21T01:50:32.291Z,73445
2015-10-21T01:50:44.635Z,73450
2015-10-21T01:50:56.963Z,73450
2015-10-21T01:51:09.309Z,73446
2015-10-21T01:51:21.622Z,73446
2015-10-21T01:51:33.966Z,73451
2015-10-21T01:51:46.309Z,73448
2015-10-21T01:51:58.656Z,73447
2015-10-21T01:52:10.984Z,73450
2015-10-21T01:52:23.312Z,73449
2015-10-21T01:52:35.641Z,73449
2015-10-21T01:52:47.984Z,73442
2015-10-21T01:53:00.314Z,73445
2015-10-21T01:53:12.658Z,73457
2015-10-21T01:53:24.986Z,73455
2015-10-21T01:53:37.330Z,73444
2015-10-21T01:53:49.658Z,73448
2015-10-21T01:54:01.989Z,73454
2015-10-21T01:54:14.333Z,73443
2015-10-21T01:54:26.661Z,73445
2015-10-21T01:54:39.021Z,73452
2015-10-21T01:54:51.349Z,73455
2015-10-21T01:55:03.680Z,73455
2015-10-21T01:55:16.008Z,73449
2015-10-21T01:55:28.352Z,73452
2015-10-21T01:55:40.695Z,73456
2015-10-21T01:55:52.320Z,73457
2015-10-21T01:56:04.652Z,73452
2015-10-21T01:56:17.011Z,73454
2015-10-21T01:56:29.355Z,73452
2015-10-21T01:56:41.542Z,73448
2015-10-21T01:56:53.870Z,73461
2015-10-21T01:57:06.201Z,73459
2015-10-21T01:57:18.545Z,73450
2015-10-21T01:57:30.889Z,73452
2015-10-21T01:57:43.217Z,73456
2015-10-21T01:57:55.545Z,73457
2015-10-21T01:58:07.891Z,73458
2015-10-21T01:58:20.219Z,73452
2015-10-21T01:58:32.547Z,73455
2015-10-21T01:58:44.875Z,73450
2015-10-21T01:58:57.203Z,73451
2015-10-21T01:59:09.581Z,73452
2015-10-21T01:59:21.925Z,73456
2015-10-21T01:59:34.253Z,73459
2015-10-21T01:59:46.581Z,73463
2015-10-21T01:59:58.910Z,73454
2015-10-21T02:00:11.272Z,73455
2015-10-21T02:00:23.600Z,73463
2015-10-21T02:00:35.928Z,73461
2015-10-21T02:00:48.256Z,73454
2015-10-21T02:01:00.600Z,73454
2015-10-21T02:01:12.946Z,73459
2015-10-21T02:01:25.274Z,73449
2015-10-21T02:01:37.602Z,73451
2015-10-21T02:01:49.930Z,73454
2015-10-21T02:02:02.274Z,73452
2015-10-21T02:02:14.622Z,73456
2015-10-21T02:02:26.950Z,73452
2015-10-21T02:02:39.278Z,73448
2015-10-21T02:02:51.606Z,73448
2015-10-21T02:03:03.950Z,73455
2015-10-21T02:03:15.592Z,73448
2015-10-21T02:03:27.936Z,73458
2015-10-21T02:03:40.264Z,73450
2015-10-21T02:03:52.608Z,73456
2015-10-21T02:04:04.936Z,73452
2015-10-21T02:04:17.267Z,73452
2015-10-21T02:04:29.595Z,73452
2015-10-21T02:04:41.924Z,73451
2015-10-21T02:04:54.267Z,73450
2015-10-21T02:05:06.582Z,73455
2015-10-21T02:05:18.926Z,73449
2015-10-21T02:05:31.254Z,73453
2015-10-21T02:05:43.597Z,73453
2015-10-21T02:05:55.941Z,73446
2015-10-21T02:06:08.272Z,73454
2015-10-21T02:06:20.600Z,73446
2015-10-21T02:06:32.929Z,73454
2015-10-21T02:06:44.554Z,73448
2015-10-21T02:06:56.897Z,73448
2015-10-21T02:07:09.227Z,73449
2015-10-21T02:07:21.556Z,73450
2015-10-21T02:07:33.899Z,73453
2015-10-21T02:07:46.259Z,73445
2015-10-21T02:07:58.571Z,73450
2015-10-21T02:08:10.903Z,73446
2015-10-21T02:08:23.231Z,73451
2015-10-21T02:08:35.575Z,73449
2015-10-21T02:08:47.903Z,73456
2015-10-21T02:09:00.231Z,73452
2015-10-21T02:09:12.563Z,73451
2015-10-21T02:09:24.906Z,73454
2015-10-21T02:09:37.250Z,73449
2015-10-21T02:09:49.578Z,73453
2015-10-21T02:10:01.906Z,73446
2015-10-21T02:10:14.236Z,73459
2015-10-21T02:10:26.580Z,73446
2015-10-21T02:10:38.908Z,73452
2015-10-21T02:10:51.252Z,73449
2015-10-21T02:11:03.580Z,73450
2015-10-21T02:11:15.910Z,73452
2015-10-21T02:11:28.254Z,73453
2015-10-21T02:11:40.598Z,73452
2015-10-21T02:11:52.926Z,73453
2015-10-21T02:12:05.254Z,73451
2015-10-21T02:12:17.602Z,73451
2015-10-21T02:12:29.946Z,73452
2015-10-21T02:12:42.274Z,73456
2015-10-21T02:12:54.602Z,73449
2015-10-21T02:13:06.930Z,73452
2015-10-21T02:13:19.276Z,73450
2015-10-21T02:13:31.635Z,73452
2015-10-21T02:13:43.948Z,73447
2015-10-21T02:13:56.291Z,73451
2015-10-21T02:14:07.916Z,73445
2015-10-21T02:14:20.263Z,73450
2015-10-21T02:14:32.591Z,73459
2015-10-21T02:14:44.919Z,73462
2015-10-21T02:14:57.247Z,73456
2015-10-21T02:15:09.591Z,73450
2015-10-21T02:15:21.937Z,73454
2015-10-21T02:15:34.265Z,73450
2015-10-21T02:15:46.593Z,73450
2015-10-21T02:15:58.921Z,73449
2015-10-21T02:16:11.281Z,73443
2015-10-21T02:16:23.612Z,73455
2015-10-21T02:16:35.940Z,73450
2015-10-21T02:16:48.284Z,73452
2015-10-21T02:17:00.471Z,73455
2015-10-21T02:17:12.799Z,73451
2015-10-21T02:17:25.130Z,73445
2015-10-21T02:17:37.459Z,73454
2015-10-21T02:17:49.802Z,73452
2015-10-21T02:18:02.146Z,73449
2015-10-21T02:18:14.474Z,73452
2015-10-21T02:18:26.805Z,73451
2015-10-21T02:18:39.133Z,73445
2015-10-21T02:18:51.477Z,73460
2015-10-21T02:19:03.821Z,73445
2015-10-21T02:19:16.165Z,73454
2015-10-21T02:19:28.495Z,73450
2015-10-21T02:19:40.823Z,73451
2015-10-21T02:19:53.167Z,73451
2015-10-21T02:20:05.510Z,73448
2015-10-21T02:20:17.842Z,73452
2015-10-21T02:20:30.170Z,73446
2015-10-21T02:20:42.498Z,73449
2015-10-21T02:20:54.842Z,73450
2015-10-21T02:21:07.185Z,73451
2015-10-21T02:21:19.516Z,73452
2015-10-21T02:21:31.829Z,73445
2015-10-21T02:21:44.188Z,73455
2015-10-21T02:21:56.532Z,73454
2015-10-21T02:22:08.860Z,73452
2015-10-21T02:22:21.191Z,73453
2015-10-21T02:22:33.535Z,73440
2015-10-21T02:22:45.894Z,73447
2015-10-21T02:22:58.223Z,73453
2015-10-21T02:23:10.551Z,73448
2015-10-21T02:23:22.865Z,73450
2015-10-21T02:23:35.225Z,73447
2015-10-21T02:23:46.834Z,73444
2015-10-21T02:23:59.412Z,73448
2015-10-21T02:24:11.021Z,73445
2015-10-21T02:24:23.353Z,73453
2015-10-21T02:24:35.681Z,73454
2015-10-21T02:24:48.009Z,73452
2015-10-21T02:25:00.337Z,73448
2015-10-21T02:25:12.665Z,73447
2015-10-21T02:25:24.996Z,73453
2015-10-21T02:25:37.340Z,73449
2015-10-21T02:25:49.684Z,73457
2015-10-21T02:26:02.012Z,73449
2015-10-21T02:26:14.324Z,73447
2015-10-21T02:26:26.671Z,73450
2015-10-21T02:26:39.030Z,73446
2015-10-21T02:26:51.343Z,73449
2015-10-21T02:27:03.671Z,73443
2015-10-21T02:27:16.280Z,73446
2015-10-21T02:27:28.627Z,73448
2015-10-21T02:27:40.955Z,73441
2015-10-21T02:27:53.268Z,73452
2015-10-21T02:28:05.596Z,73450
2015-10-21T02:28:17.955Z,73445
2015-10-21T02:28:30.301Z,73442
2015-10-21T02:28:42.629Z,73449
2015-10-21T02:28:55.051Z,73447
2015-10-21T02:29:07.379Z,73445
2015-10-21T02:29:19.723Z,73452
2015-10-21T02:29:32.053Z,73449
2015-10-21T02:29:44.381Z,73449
2015-10-21T02:29:56.709Z,73449
2015-10-21T02:30:09.053Z,73440
2015-10-21T02:30:21.397Z,73453
2015-10-21T02:30:33.729Z,73446
2015-10-21T02:30:46.057Z,73449
2015-10-21T02:30:58.385Z,73446
2015-10-21T02:31:10.745Z,73448
2015-10-21T02:31:23.073Z,73444
2015-10-21T02:31:35.388Z,73450
2015-10-21T02:31:47.716Z,73447
2015-10-21T02:31:59.904Z,73454
2015-10-21T02:32:12.263Z,73442
2015-10-21T02:32:24.591Z,73448
2015-10-21T02:32:36.921Z,73446
2015-10-21T02:32:49.250Z,73447
2015-10-21T02:33:01.609Z,73446
2015-10-21T02:33:13.937Z,73449
2015-10-21T02:33:26.265Z,73447
2015-10-21T02:33:38.596Z,73451
2015-10-21T02:33:50.940Z,73447
2015-10-21T02:34:03.268Z,73445
2015-10-21T02:34:15.596Z,73453
2015-10-21T02:34:27.940Z,73444
2015-10-21T02:34:40.270Z,73445
2015-10-21T02:34:52.630Z,73447
2015-10-21T02:35:04.973Z,73450
2015-10-21T02:35:17.317Z,73442
2015-10-21T02:35:29.633Z,73447
2015-10-21T02:35:41.976Z,73446
2015-10-21T02:35:54.336Z,73445
2015-10-21T02:36:06.664Z,73448
2015-10-21T02:36:18.992Z,73439
2015-10-21T02:36:31.323Z,73449
2015-10-21T02:36:43.511Z,73442
2015-10-21T02:36:55.854Z,73452
2015-10-21T02:37:08.182Z,73443
2015-10-21T02:37:20.526Z,73446
2015-10-21T02:37:32.857Z,73448
2015-10-21T02:37:45.201Z,73446
2015-10-21T02:37:57.560Z,73448
2015-10-21T02:38:09.904Z,73451
2015-10-21T02:38:22.232Z,73451
2015-10-21T02:38:34.578Z,73449